createdAt,value
2019-05-26T00:00:09.978Z,23.30
2019-05-26T00:02:36.596Z,22.10
2019-05-26T00:05:05.263Z,21.57
2019-05-26T00:07:31.514Z,21.93
2019-05-26T00:09:57.859Z,21.57
2019-05-26T00:12:23.956Z,22.13
2019-05-26T00:14:50.055Z,20.57
2019-05-26T00:17:17.411Z,22.60
2019-05-26T00:19:43.653Z,20.93
2019-05-26T00:22:09.966Z,21.00
2019-05-26T00:24:36.197Z,23.37
2019-05-26T00:27:02.906Z,22.03
2019-05-26T00:29:29.098Z,21.80
2019-05-26T00:31:55.611Z,21.73
2019-05-26T00:34:22.021Z,24.07
2019-05-26T00:36:48.247Z,24.17
2019-05-26T00:39:14.380Z,23.73
2019-05-26T00:41:40.704Z,23.80
2019-05-26T00:44:06.946Z,23.07
2019-05-26T00:46:33.365Z,23.00
2019-05-26T00:48:59.893Z,23.57
2019-05-26T00:51:26.134Z,22.13
2019-05-26T00:53:52.324Z,24.13
2019-05-26T00:56:18.566Z,22.77
2019-05-26T00:58:44.667Z,24.70
2019-05-26T01:01:11.076Z,24.23
2019-05-26T01:03:37.660Z,24.50
2019-05-26T01:06:03.975Z,25.83
2019-05-26T01:08:30.160Z,24.67
2019-05-26T01:10:56.360Z,26.17
2019-05-26T01:13:22.473Z,25.93
2019-05-26T01:15:48.797Z,22.83
2019-05-26T01:18:15.950Z,26.90
2019-05-26T01:20:42.231Z,27.33
2019-05-26T01:23:08.366Z,26.97
2019-05-26T01:25:34.561Z,29.53
2019-05-26T01:28:00.865Z,29.40
2019-05-26T01:30:37.568Z,29.37
2019-05-26T01:33:04.773Z,26.30
2019-05-26T01:35:31.279Z,30.73
2019-05-26T01:37:58.282Z,27.37
2019-05-26T01:40:36.313Z,30.23
2019-05-26T01:43:02.600Z,27.47
2019-05-26T01:45:28.840Z,28.73
2019-05-26T01:47:55.036Z,28.70
2019-05-26T01:50:21.323Z,30.23
2019-05-26T01:52:47.598Z,26.13
2019-05-26T01:55:13.683Z,26.20
2019-05-26T01:57:40.098Z,28.00
2019-05-26T02:00:07.754Z,35.97
2019-05-26T02:02:34.243Z,26.60
2019-05-26T02:05:00.474Z,29.37
2019-05-26T02:07:26.778Z,27.97
2019-05-26T02:09:53.147Z,27.83
2019-05-26T02:12:19.348Z,26.03
2019-05-26T02:14:45.660Z,28.50
2019-05-26T02:17:11.994Z,28.63
2019-05-26T02:19:38.316Z,30.50
2019-05-26T02:22:05.134Z,28.77
2019-05-26T02:24:31.462Z,28.70
2019-05-26T02:26:57.702Z,28.33
2019-05-26T02:29:23.802Z,29.20
2019-05-26T02:31:50.133Z,29.57
2019-05-26T02:34:16.344Z,29.13
2019-05-26T02:36:42.535Z,30.97
2019-05-26T02:39:08.796Z,34.90
2019-05-26T02:41:35.072Z,31.80
2019-05-26T02:44:01.265Z,30.30
2019-05-26T02:46:27.437Z,30.13
2019-05-26T02:48:53.569Z,32.23
2019-05-26T02:51:19.801Z,32.63
2019-05-26T02:53:46.081Z,32.27
2019-05-26T02:56:12.800Z,32.20
2019-05-26T02:58:38.978Z,32.30
2019-05-26T03:01:05.288Z,33.57
2019-05-26T03:03:31.533Z,31.53
2019-05-26T03:05:58.307Z,32.90
2019-05-26T03:08:25.197Z,33.47
2019-05-26T03:10:53.203Z,35.00
2019-05-26T03:13:19.516Z,33.87
2019-05-26T03:15:46.097Z,33.87
2019-05-26T03:18:12.795Z,33.97
2019-05-26T03:20:40.052Z,35.50
2019-05-26T03:23:07.468Z,32.43
2019-05-26T03:25:35.181Z,33.10
2019-05-26T03:28:01.459Z,31.60
2019-05-26T03:30:27.616Z,34.13
2019-05-26T03:32:53.866Z,30.70
2019-05-26T03:35:19.981Z,32.60
2019-05-26T03:37:46.091Z,31.27
2019-05-26T03:40:12.503Z,29.27
2019-05-26T03:42:38.828Z,29.87
2019-05-26T03:45:07.136Z,25.60
2019-05-26T03:47:33.376Z,30.50
2019-05-26T03:49:59.682Z,30.27
2019-05-26T03:52:25.799Z,26.70
2019-05-26T03:54:51.928Z,28.83
2019-05-26T03:57:18.141Z,30.37
2019-05-26T03:59:44.273Z,29.47
2019-05-26T04:02:10.576Z,29.97
2019-05-26T04:04:36.894Z,30.70
2019-05-26T04:07:03.276Z,30.70
2019-05-26T04:09:29.605Z,30.03
2019-05-26T04:11:55.801Z,28.70
2019-05-26T04:14:22.188Z,27.77
2019-05-26T04:16:48.309Z,28.80
2019-05-26T04:19:14.606Z,28.13
2019-05-26T04:21:40.760Z,26.80
2019-05-26T04:24:06.836Z,26.93
2019-05-26T04:26:33.105Z,28.67
2019-05-26T04:28:59.308Z,26.77
2019-05-26T04:31:25.621Z,26.53
2019-05-26T04:33:51.735Z,25.03
2019-05-26T04:36:17.824Z,24.90
2019-05-26T04:38:44.144Z,26.30
2019-05-26T04:41:10.265Z,26.57
2019-05-26T04:43:36.459Z,25.03
2019-05-26T04:46:03.904Z,26.90
2019-05-26T04:48:30.125Z,23.97
2019-05-26T04:50:56.476Z,27.23
2019-05-26T04:53:22.595Z,26.10
2019-05-26T04:55:48.898Z,26.00
2019-05-26T04:58:15.014Z,25.87
2019-05-26T05:00:41.151Z,26.07
2019-05-26T05:03:07.523Z,24.83
2019-05-26T05:05:33.746Z,26.33
2019-05-26T05:07:59.889Z,28.27
2019-05-26T05:10:41.271Z,23.97
2019-05-26T05:12:54.238Z,27.53
2019-05-26T05:15:20.550Z,27.60
2019-05-26T05:17:46.692Z,28.07
2019-05-26T05:20:13.025Z,29.43
2019-05-26T05:22:39.213Z,29.53
2019-05-26T05:25:13.846Z,30.37
2019-05-26T05:27:35.159Z,33.13
2019-05-26T05:30:03.549Z,33.20
2019-05-26T05:32:32.814Z,31.17
2019-05-26T05:34:57.934Z,31.27
2019-05-26T05:37:25.236Z,33.47
2019-05-26T05:39:51.895Z,34.50
2019-05-26T05:42:18.205Z,34.50
2019-05-26T05:44:44.369Z,34.10
2019-05-26T05:47:10.618Z,37.10
2019-05-26T05:49:36.997Z,35.47
2019-05-26T05:52:03.654Z,34.10
2019-05-26T05:54:29.890Z,34.53
2019-05-26T05:56:56.106Z,33.40
2019-05-26T05:59:22.343Z,31.30
2019-05-26T06:01:48.698Z,35.97
2019-05-26T06:04:15.138Z,37.40
2019-05-26T06:06:41.394Z,36.83
2019-05-26T06:09:07.695Z,35.50
2019-05-26T06:11:33.918Z,34.97
2019-05-26T06:14:00.202Z,38.77
2019-05-26T06:16:26.308Z,43.13
2019-05-26T06:18:52.514Z,42.63
2019-05-26T06:21:18.668Z,41.70
2019-05-26T06:23:44.981Z,44.80
2019-05-26T06:26:11.290Z,42.47
2019-05-26T06:28:37.711Z,43.23
2019-05-26T06:31:04.121Z,44.30
2019-05-26T06:33:31.514Z,42.53
2019-05-26T06:35:57.814Z,41.67
2019-05-26T06:38:25.730Z,38.87
2019-05-26T06:40:52.010Z,37.00
2019-05-26T06:43:18.313Z,34.73
2019-05-26T06:45:44.544Z,35.87
2019-05-26T06:48:10.838Z,34.37
2019-05-26T06:50:37.140Z,36.50
2019-05-26T06:53:03.349Z,36.93
2019-05-26T06:55:29.711Z,33.50
2019-05-26T06:57:55.967Z,34.20
2019-05-26T07:00:22.249Z,36.20
2019-05-26T07:02:48.578Z,35.77
2019-05-26T07:05:18.406Z,33.20
2019-05-26T07:07:43.704Z,33.90
2019-05-26T07:10:10.035Z,35.80
2019-05-26T07:12:36.273Z,33.50
2019-05-26T07:15:05.148Z,33.57
2019-05-26T07:17:31.377Z,36.20
2019-05-26T07:19:57.567Z,34.87
2019-05-26T07:22:23.813Z,31.93
2019-05-26T07:24:50.053Z,34.47
2019-05-26T07:27:16.432Z,34.70
2019-05-26T07:29:42.549Z,32.47
2019-05-26T07:32:08.936Z,34.00
2019-05-26T07:34:35.139Z,38.83
2019-05-26T07:37:01.479Z,32.87
2019-05-26T07:39:27.761Z,32.03
2019-05-26T07:42:09.479Z,35.03
2019-05-26T07:44:23.280Z,37.30
2019-05-26T07:46:49.625Z,32.13
2019-05-26T07:49:15.926Z,35.27
2019-05-26T07:51:42.124Z,33.00
2019-05-26T07:54:24.306Z,33.57
2019-05-26T07:56:36.422Z,35.10
2019-05-26T07:59:02.885Z,35.03
2019-05-26T08:01:35.635Z,33.17
2019-05-26T08:03:57.298Z,32.27
2019-05-26T08:06:23.520Z,33.03
2019-05-26T08:08:49.872Z,32.83
2019-05-26T08:11:16.162Z,32.27
2019-05-26T08:13:42.368Z,30.63
2019-05-26T08:16:08.589Z,30.37
2019-05-26T08:18:34.974Z,30.00
2019-05-26T08:21:01.355Z,30.47
2019-05-26T08:23:27.480Z,32.23
2019-05-26T08:25:53.889Z,29.77
2019-05-26T08:28:20.096Z,31.10
2019-05-26T08:30:46.201Z,30.00
2019-05-26T08:33:12.367Z,31.10
2019-05-26T08:35:38.666Z,33.53
2019-05-26T08:38:04.979Z,26.70
2019-05-26T08:40:31.218Z,29.80
2019-05-26T08:42:57.393Z,29.47
2019-05-26T08:45:23.626Z,27.70
2019-05-26T08:47:50.354Z,26.90
2019-05-26T08:50:17.285Z,30.50
2019-05-26T08:52:43.613Z,29.23
2019-05-26T08:55:10.430Z,29.90
2019-05-26T08:57:36.668Z,27.40
2019-05-26T09:00:05.680Z,27.87
2019-05-26T09:02:32.119Z,28.07
2019-05-26T09:04:58.429Z,23.93
2019-05-26T09:07:24.667Z,25.67
2019-05-26T09:09:50.956Z,25.40
2019-05-26T09:12:17.462Z,27.13
2019-05-26T09:14:43.593Z,26.03
2019-05-26T09:17:09.918Z,23.77
2019-05-26T09:19:36.236Z,24.03
2019-05-26T09:22:03.515Z,21.47
2019-05-26T09:24:29.878Z,23.37
2019-05-26T09:26:56.405Z,23.30
2019-05-26T09:29:22.772Z,25.10
2019-05-26T09:31:48.856Z,22.63
2019-05-26T09:34:15.076Z,23.77
2019-05-26T09:36:41.215Z,22.97
2019-05-26T09:39:07.737Z,22.93
2019-05-26T09:41:34.230Z,21.50
2019-05-26T09:44:00.652Z,21.27
2019-05-26T09:46:26.768Z,21.87
2019-05-26T09:48:53.533Z,20.60
2019-05-26T09:51:19.788Z,19.20
2019-05-26T09:53:59.054Z,19.77
2019-05-26T09:56:14.185Z,18.97
2019-05-26T09:58:43.295Z,18.90
2019-05-26T10:01:09.870Z,19.20
2019-05-26T10:03:36.186Z,18.53
2019-05-26T10:06:02.943Z,20.83
2019-05-26T10:08:29.653Z,19.10
2019-05-26T10:10:56.045Z,22.03
2019-05-26T10:13:31.444Z,20.50
2019-05-26T10:15:50.626Z,17.30
2019-05-26T10:18:17.030Z,20.03
2019-05-26T10:20:43.554Z,18.23
2019-05-26T10:23:09.899Z,18.10
2019-05-26T10:25:36.011Z,17.73
2019-05-26T10:28:02.527Z,16.87
2019-05-26T10:30:28.647Z,19.37
2019-05-26T10:32:55.002Z,17.63
2019-05-26T10:35:21.395Z,17.77
2019-05-26T10:37:47.935Z,20.30
2019-05-26T10:40:14.551Z,19.70
2019-05-26T10:42:40.880Z,15.67
2019-05-26T10:45:08.170Z,17.57
2019-05-26T10:47:35.721Z,17.53
2019-05-26T10:50:05.641Z,16.27
2019-05-26T10:52:31.895Z,16.33
2019-05-26T10:54:58.142Z,17.13
2019-05-26T10:57:24.607Z,16.70
2019-05-26T10:59:51.136Z,16.17
2019-05-26T11:02:17.355Z,16.00
2019-05-26T11:04:43.651Z,16.20
2019-05-26T11:07:09.981Z,15.03
2019-05-26T11:09:36.409Z,15.17
2019-05-26T11:12:03.560Z,14.38
2019-05-26T11:14:29.927Z,15.97
2019-05-26T11:16:56.181Z,14.83
2019-05-26T11:19:22.562Z,17.97
2019-05-26T11:21:48.777Z,13.90
2019-05-26T11:24:15.436Z,18.07
2019-05-26T11:26:41.649Z,15.93
2019-05-26T11:29:07.955Z,14.53
2019-05-26T11:31:34.273Z,14.27
2019-05-26T11:34:00.591Z,13.43
2019-05-26T11:36:26.862Z,14.38
2019-05-26T11:38:53.246Z,13.83
2019-05-26T11:41:19.508Z,13.07
2019-05-26T11:43:45.764Z,13.40
2019-05-26T11:46:11.959Z,14.47
2019-05-26T11:48:39.309Z,15.25
2019-05-26T11:51:05.984Z,11.35
2019-05-26T11:53:32.309Z,12.23
2019-05-26T11:55:58.507Z,15.55
2019-05-26T11:58:24.708Z,11.07
2019-05-26T12:00:50.894Z,13.48
2019-05-26T12:03:17.032Z,16.63
2019-05-26T12:05:43.618Z,13.53
2019-05-26T12:08:10.049Z,9.75
2019-05-26T12:10:37.055Z,9.10
2019-05-26T12:13:03.392Z,11.30
2019-05-26T12:15:29.734Z,13.43
2019-05-26T12:17:56.109Z,9.73
2019-05-26T12:20:22.412Z,16.67
2019-05-26T12:22:48.681Z,10.15
2019-05-26T12:25:14.972Z,9.98
2019-05-26T12:27:41.187Z,12.40
2019-05-26T12:30:08.921Z,12.35
2019-05-26T12:32:35.187Z,16.30
2019-05-26T12:35:01.527Z,11.60
2019-05-26T12:37:27.901Z,10.50
2019-05-26T12:39:55.131Z,9.27
2019-05-26T12:42:21.607Z,7.72
2019-05-26T12:44:49.810Z,9.88
2019-05-26T12:47:17.538Z,9.45
2019-05-26T12:49:43.901Z,12.53
2019-05-26T12:52:10.309Z,11.05
2019-05-26T12:54:36.435Z,14.87
2019-05-26T12:57:02.793Z,23.73
2019-05-26T12:59:29.195Z,13.20
2019-05-26T13:01:55.526Z,10.63
2019-05-26T13:04:21.979Z,11.05
2019-05-26T13:06:48.209Z,11.05
2019-05-26T13:09:14.913Z,12.50
2019-05-26T13:11:41.278Z,18.67
2019-05-26T13:14:07.472Z,13.03
2019-05-26T13:16:35.821Z,14.53
2019-05-26T13:19:02.069Z,12.55
2019-05-26T13:21:28.383Z,14.38
2019-05-26T13:23:54.691Z,11.68
2019-05-26T13:26:21.086Z,14.13
2019-05-26T13:28:47.441Z,10.80
2019-05-26T13:31:13.832Z,14.83
2019-05-26T13:33:40.255Z,10.72
2019-05-26T13:36:06.736Z,12.53
2019-05-26T13:38:33.027Z,10.30
2019-05-26T13:40:59.244Z,13.60
2019-05-26T13:43:25.642Z,17.42
2019-05-26T13:45:51.982Z,13.38
2019-05-26T13:48:18.144Z,14.23
2019-05-26T13:50:44.411Z,10.73
2019-05-26T13:53:10.700Z,10.30
2019-05-26T13:55:36.896Z,21.97
2019-05-26T13:58:03.603Z,9.35
2019-05-26T14:00:30.168Z,16.52
2019-05-26T14:02:56.593Z,9.70
2019-05-26T14:05:23.136Z,9.63
2019-05-26T14:07:49.885Z,11.55
2019-05-26T14:10:29.191Z,16.05
2019-05-26T14:12:55.778Z,10.65
2019-05-26T14:15:36.883Z,11.38
2019-05-26T14:17:51.798Z,10.23
2019-05-26T14:20:21.848Z,12.63
2019-05-26T14:22:49.719Z,11.53
2019-05-26T14:25:16.001Z,10.50
2019-05-26T14:27:42.428Z,10.78
2019-05-26T14:30:08.875Z,6.50
2019-05-26T14:32:35.011Z,7.67
2019-05-26T14:35:01.495Z,10.70
2019-05-26T14:37:27.815Z,9.33
2019-05-26T14:39:54.299Z,8.28
2019-05-26T14:42:20.583Z,8.75
2019-05-26T14:44:46.778Z,8.08
2019-05-26T14:47:12.994Z,7.30
2019-05-26T14:49:40.468Z,9.45
2019-05-26T14:52:06.722Z,13.13
2019-05-26T14:54:32.986Z,10.53
2019-05-26T14:56:59.170Z,12.37
2019-05-26T14:59:25.415Z,13.90
2019-05-26T15:01:51.676Z,13.45
2019-05-26T15:04:18.094Z,16.32
2019-05-26T15:06:44.195Z,13.45
2019-05-26T15:09:24.267Z,13.75
2019-05-26T15:11:38.520Z,17.30
2019-05-26T15:14:04.837Z,19.40
2019-05-26T15:16:31.068Z,14.63
2019-05-26T15:18:57.353Z,12.63
2019-05-26T15:21:23.494Z,11.95
2019-05-26T15:23:49.685Z,11.28
2019-05-26T15:26:16.104Z,13.50
2019-05-26T15:28:42.480Z,11.95
2019-05-26T15:31:10.219Z,9.35
2019-05-26T15:33:36.379Z,10.08
2019-05-26T15:36:02.692Z,10.82
2019-05-26T15:38:42.093Z,11.50
2019-05-26T15:40:57.056Z,11.90
2019-05-26T15:43:23.303Z,11.55
2019-05-26T15:45:49.534Z,12.82
2019-05-26T15:48:15.783Z,12.18
2019-05-26T15:50:42.140Z,11.03
2019-05-26T15:53:08.282Z,11.80
2019-05-26T15:55:34.550Z,11.18
2019-05-26T15:58:00.932Z,11.50
2019-05-26T16:00:27.379Z,11.10
2019-05-26T16:02:53.577Z,12.90
2019-05-26T16:05:19.875Z,11.63
2019-05-26T16:07:46.139Z,9.68
2019-05-26T16:10:12.384Z,11.73
2019-05-26T16:12:38.679Z,12.05
2019-05-26T16:15:06.635Z,12.15
2019-05-26T16:17:33.220Z,11.05
2019-05-26T16:19:59.487Z,11.57
2019-05-26T16:22:25.682Z,13.20
2019-05-26T16:24:51.884Z,15.55
2019-05-26T16:27:19.881Z,15.00
2019-05-26T16:29:46.827Z,12.68
2019-05-26T16:32:13.114Z,11.00
2019-05-26T16:34:39.324Z,13.93
2019-05-26T16:37:05.669Z,12.18
2019-05-26T16:39:37.091Z,12.10
2019-05-26T16:42:00.165Z,12.28
2019-05-26T16:44:26.394Z,12.73
2019-05-26T16:46:56.423Z,12.43
2019-05-26T16:49:20.891Z,12.23
2019-05-26T16:51:47.196Z,12.28
2019-05-26T16:54:13.503Z,12.93
2019-05-26T16:56:39.781Z,12.23
2019-05-26T16:59:06.198Z,13.28
2019-05-26T17:01:32.381Z,11.65
2019-05-26T17:03:58.503Z,12.70
2019-05-26T17:06:24.790Z,11.30
2019-05-26T17:08:51.146Z,11.88
2019-05-26T17:11:17.501Z,11.88
2019-05-26T17:13:43.978Z,12.68
2019-05-26T17:16:10.100Z,12.80
2019-05-26T17:18:36.434Z,11.48
2019-05-26T17:21:02.857Z,12.65
2019-05-26T17:23:29.186Z,13.08
2019-05-26T17:25:55.431Z,12.53
2019-05-26T17:28:21.681Z,12.50
2019-05-26T17:30:49.121Z,13.27
2019-05-26T17:33:15.357Z,13.83
2019-05-26T17:35:41.612Z,14.15
2019-05-26T17:38:07.876Z,12.82
2019-05-26T17:40:34.260Z,13.35
2019-05-26T17:43:00.575Z,13.32
2019-05-26T17:45:26.921Z,12.95
2019-05-26T17:47:53.093Z,12.98
2019-05-26T17:50:19.509Z,12.95
2019-05-26T17:52:45.843Z,13.40
2019-05-26T17:55:12.449Z,11.53
2019-05-26T17:57:38.784Z,13.72
2019-05-26T18:00:10.099Z,14.47
2019-05-26T18:02:37.049Z,12.35
2019-05-26T18:05:04.141Z,11.43
2019-05-26T18:07:31.339Z,12.78
2019-05-26T18:09:57.604Z,11.47
2019-05-26T18:12:23.862Z,13.30
2019-05-26T18:14:50.212Z,13.38
2019-05-26T18:17:16.536Z,12.53
2019-05-26T18:19:42.897Z,11.95
2019-05-26T18:22:09.232Z,12.47
2019-05-26T18:24:35.714Z,12.25
2019-05-26T18:27:01.984Z,13.80
2019-05-26T18:29:28.391Z,11.88
2019-05-26T18:31:54.741Z,15.53
2019-05-26T18:34:20.946Z,14.65
2019-05-26T18:36:47.198Z,11.33
2019-05-26T18:39:13.352Z,14.90
2019-05-26T18:41:39.565Z,13.38
2019-05-26T18:44:06.280Z,13.10
2019-05-26T18:46:33.647Z,12.28
2019-05-26T18:48:59.843Z,14.03
2019-05-26T18:51:26.092Z,17.17
2019-05-26T18:53:52.412Z,14.60
2019-05-26T18:56:18.807Z,13.60
2019-05-26T18:58:45.131Z,12.90
2019-05-26T19:01:11.654Z,14.47
2019-05-26T19:03:38.033Z,11.50
2019-05-26T19:06:04.278Z,12.37
2019-05-26T19:08:30.586Z,13.67
2019-05-26T19:10:57.119Z,14.33
2019-05-26T19:13:23.553Z,13.20
2019-05-26T19:15:49.992Z,11.97
2019-05-26T19:18:20.289Z,14.00
2019-05-26T19:20:44.400Z,15.05
2019-05-26T19:23:10.609Z,14.37
2019-05-26T19:25:36.971Z,11.93
2019-05-26T19:28:03.563Z,14.57
2019-05-26T19:30:30.872Z,15.03
2019-05-26T19:32:57.203Z,13.55
2019-05-26T19:35:23.855Z,12.57
2019-05-26T19:37:49.987Z,13.43
2019-05-26T19:40:16.818Z,15.20
2019-05-26T19:42:43.330Z,12.50
2019-05-26T19:45:10.051Z,12.50
2019-05-26T19:47:36.533Z,13.00
2019-05-26T19:50:07.870Z,14.23
2019-05-26T19:52:34.295Z,17.90
2019-05-26T19:55:00.758Z,13.43
2019-05-26T19:57:27.112Z,13.30
2019-05-26T19:59:53.429Z,14.95
2019-05-26T20:02:19.621Z,14.23
2019-05-26T20:04:46.079Z,12.90
2019-05-26T20:07:12.485Z,14.30
2019-05-26T20:09:38.837Z,14.60
2019-05-26T20:12:05.153Z,13.80
2019-05-26T20:14:31.504Z,13.67
2019-05-26T20:16:58.982Z,14.23
2019-05-26T20:19:25.333Z,13.57
2019-05-26T20:21:51.512Z,13.13
2019-05-26T20:24:17.923Z,13.23
2019-05-26T20:26:44.037Z,13.93
2019-05-26T20:29:10.352Z,13.13
2019-05-26T20:31:36.707Z,13.63
2019-05-26T20:34:03.174Z,12.70
2019-05-26T20:36:29.452Z,14.50
2019-05-26T20:38:55.647Z,13.33
2019-05-26T20:41:22.017Z,11.87
2019-05-26T20:43:48.438Z,13.53
2019-05-26T20:46:14.680Z,12.70
2019-05-26T20:48:41.041Z,13.37
2019-05-26T20:51:07.491Z,12.77
2019-05-26T20:53:34.868Z,13.70
2019-05-26T20:56:01.161Z,13.50
2019-05-26T20:58:28.010Z,14.47
2019-05-26T21:00:54.221Z,14.03
2019-05-26T21:03:20.431Z,13.53
2019-05-26T21:05:46.674Z,14.87
2019-05-26T21:08:12.954Z,13.77
2019-05-26T21:10:39.075Z,13.80
2019-05-26T21:13:05.355Z,13.20
2019-05-26T21:15:31.433Z,14.10
2019-05-26T21:17:57.659Z,13.87
2019-05-26T21:20:24.001Z,16.03
2019-05-26T21:22:50.489Z,15.30
2019-05-26T21:25:16.881Z,12.93
2019-05-26T21:27:42.979Z,14.80
2019-05-26T21:30:09.760Z,13.13
2019-05-26T21:32:36.080Z,14.00
2019-05-26T21:35:04.311Z,15.00
2019-05-26T21:37:30.766Z,14.53
2019-05-26T21:39:56.922Z,14.23
2019-05-26T21:42:23.079Z,17.67
2019-05-26T21:44:49.353Z,15.33
2019-05-26T21:47:15.565Z,13.70
2019-05-26T21:49:41.823Z,14.70
2019-05-26T21:52:08.013Z,14.90
2019-05-26T21:54:34.149Z,15.27
2019-05-26T21:57:01.381Z,15.40
2019-05-26T21:59:27.748Z,14.73
2019-05-26T22:01:54.113Z,15.73
2019-05-26T22:04:20.219Z,14.50
2019-05-26T22:06:46.478Z,15.40
2019-05-26T22:09:12.683Z,15.80
2019-05-26T22:11:38.821Z,14.77
2019-05-26T22:14:04.994Z,14.80
2019-05-26T22:16:31.211Z,16.10
2019-05-26T22:19:00.144Z,13.30
2019-05-26T22:21:25.322Z,13.53
2019-05-26T22:23:51.556Z,16.77
2019-05-26T22:26:18.007Z,13.97
2019-05-26T22:28:44.125Z,14.77
2019-05-26T22:31:10.326Z,15.53
2019-05-26T22:33:36.520Z,13.80
2019-05-26T22:36:02.931Z,15.70
2019-05-26T22:38:29.125Z,15.60
2019-05-26T22:40:55.231Z,15.97
2019-05-26T22:43:21.330Z,17.10
2019-05-26T22:45:47.549Z,16.23
2019-05-26T22:48:13.740Z,14.63
2019-05-26T22:50:39.969Z,17.13
2019-05-26T22:53:06.222Z,14.53
2019-05-26T22:55:32.586Z,17.87
2019-05-26T22:57:58.713Z,13.67
2019-05-26T23:00:25.405Z,14.63
2019-05-26T23:02:51.503Z,15.13
2019-05-26T23:05:17.919Z,15.37
2019-05-26T23:07:44.128Z,15.00
2019-05-26T23:10:10.639Z,16.77
2019-05-26T23:12:37.022Z,14.37
2019-05-26T23:15:06.464Z,15.23
2019-05-26T23:17:32.579Z,15.27
2019-05-26T23:19:58.689Z,14.93
2019-05-26T23:22:24.759Z,14.37
2019-05-26T23:24:51.057Z,15.90
2019-05-26T23:27:17.139Z,15.00
2019-05-26T23:29:43.358Z,14.90
2019-05-26T23:32:09.454Z,14.37
2019-05-26T23:34:35.576Z,16.37
2019-05-26T23:37:01.749Z,16.23
2019-05-26T23:39:28.270Z,16.67
2019-05-26T23:41:54.375Z,14.30
2019-05-26T23:44:20.585Z,15.50
2019-05-26T23:46:46.810Z,14.53
2019-05-26T23:49:12.937Z,14.43
2019-05-26T23:51:39.066Z,15.17
2019-05-26T23:54:05.157Z,14.20
2019-05-26T23:56:31.269Z,14.43
2019-05-26T23:58:57.367Z,13.77
